sensor_id;sensor_type;location;lat;lon;timestamp;pressure;altitude;pressure_sealevel;temperature;humidity
66887;BME280;67239;51.680;5.976;2023-09-18T00:01:01;100490.84;;;19.70;100.00
66887;BME280;67239;51.680;5.976;2023-09-18T00:03:28;100491.81;;;19.69;100.00
66887;BME280;67239;51.680;5.976;2023-09-18T00:05:55;100490.84;;;19.70;100.00
66887;BME280;67239;51.680;5.976;2023-09-18T00:08:22;100484.66;;;19.69;100.00
66887;BME280;67239;51.680;5.976;2023-09-18T00:10:54;100472.03;;;19.71;100.00
66887;BME280;67239;51.680;5.976;2023-09-18T00:13:22;100476.50;;;19.71;100.00
66887;BME280;67239;51.680;5.976;2023-09-18T00:15:54;100469.69;;;19.67;100.00
66887;BME280;67239;51.680;5.976;2023-09-18T00:18:22;100469.78;;;19.65;100.00
66887;BME280;67239;51.680;5.976;2023-09-18T00:20:50;100475.25;;;19.64;100.00
66887;BME280;67239;51.680;5.976;2023-09-18T00:23:19;100466.41;;;19.63;100.00
66887;BME280;67239;51.680;5.976;2023-09-18T00:25:46;100466.41;;;19.63;100.00
66887;BME280;67239;51.680;5.976;2023-09-18T00:28:13;100459.34;;;19.62;100.00
66887;BME280;67239;51.680;5.976;2023-09-18T00:30:47;100452.16;;;19.63;100.00
66887;BME280;67239;51.680;5.976;2023-09-18T00:33:17;100452.38;;;19.60;100.00
66887;BME280;67239;51.680;5.976;2023-09-18T00:35:48;100442.66;;;19.59;100.00
66887;BME280;67239;51.680;5.976;2023-09-18T00:38:16;100433.78;;;19.58;100.00
66887;BME280;67239;51.680;5.976;2023-09-18T00:40:44;100431.13;;;19.58;100.00
66887;BME280;67239;51.680;5.976;2023-09-18T00:43:11;100439.28;;;19.57;100.00
66887;BME280;67239;51.680;5.976;2023-09-18T00:45:42;100431.25;;;19.57;100.00
66887;BME280;67239;51.680;5.976;2023-09-18T00:48:16;100423.56;;;19.52;100.00
66887;BME280;67239;51.680;5.976;2023-09-18T00:50:44;100428.91;;;19.52;100.00
66887;BME280;67239;51.680;5.976;2023-09-18T00:53:15;100420.16;;;19.50;100.00
66887;BME280;67239;51.680;5.976;2023-09-18T00:55:46;100416.00;;;19.46;100.00
66887;BME280;67239;51.680;5.976;2023-09-18T00:58:15;100408.09;;;19.44;100.00
66887;BME280;67239;51.680;5.976;2023-09-18T01:00:43;100401.88;;;19.44;100.00
66887;BME280;67239;51.680;5.976;2023-09-18T01:03:11;100393.88;;;19.44;100.00
66887;BME280;67239;51.680;5.976;2023-09-18T01:05:38;100394.84;;;19.43;100.00
66887;BME280;67239;51.680;5.976;2023-09-18T01:08:06;100383.31;;;19.42;100.00
66887;BME280;67239;51.680;5.976;2023-09-18T01:10:39;100372.47;;;19.44;100.00
66887;BME280;67239;51.680;5.976;2023-09-18T01:13:51;100373.13;;;19.47;100.00
66887;BME280;67239;51.680;5.976;2023-09-18T01:16:50;100363.41;;;19.46;100.00
66887;BME280;67239;51.680;5.976;2023-09-18T01:19:37;100360.59;;;19.48;100.00
66887;BME280;67239;51.680;5.976;2023-09-18T01:22:07;100351.84;;;19.46;100.00
66887;BME280;67239;51.680;5.976;2023-09-18T01:24:37;100345.66;;;19.45;100.00
66887;BME280;67239;51.680;5.976;2023-09-18T01:27:09;100342.03;;;19.46;100.00
66887;BME280;67239;51.680;5.976;2023-09-18T01:29:41;100343.81;;;19.46;100.00
66887;BME280;67239;51.680;5.976;2023-09-18T01:32:08;100347.38;;;19.46;100.00
66887;BME280;67239;51.680;5.976;2023-09-18T01:34:47;100343.81;;;19.46;100.00
66887;BME280;67239;51.680;5.976;2023-09-18T01:37:21;100341.28;;;19.44;100.00
66887;BME280;67239;51.680;5.976;2023-09-18T01:39:51;100340.53;;;19.42;100.00
66887;BME280;67239;51.680;5.976;2023-09-18T01:42:20;100344.16;;;19.41;100.00
66887;BME280;67239;51.680;5.976;2023-09-18T01:44:50;100341.50;;;19.41;100.00
66887;BME280;67239;51.680;5.976;2023-09-18T01:47:20;100339.56;;;19.43;100.00
66887;BME280;67239;51.680;5.976;2023-09-18T01:49:50;100338.59;;;19.44;100.00
66887;BME280;67239;51.680;5.976;2023-09-18T01:52:17;100333.25;;;19.44;100.00
66887;BME280;67239;51.680;5.976;2023-09-18T01:54:45;100332.06;;;19.48;100.00
66887;BME280;67239;51.680;5.976;2023-09-18T01:57:12;100317.84;;;19.48;100.00
66887;BME280;67239;51.680;5.976;2023-09-18T01:59:39;100314.81;;;19.52;100.00
66887;BME280;67239;51.680;5.976;2023-09-18T02:02:08;100310.06;;;19.56;100.00
66887;BME280;67239;51.680;5.976;2023-09-18T02:04:38;100310.94;;;19.57;100.00
66887;BME280;67239;51.680;5.976;2023-09-18T02:07:26;100308.97;;;19.59;100.00
66887;BME280;67239;51.680;5.976;2023-09-18T02:09:53;100312.53;;;19.59;100.00
66887;BME280;67239;51.680;5.976;2023-09-18T02:12:20;100316.03;;;19.60;100.00
66887;BME280;67239;51.680;5.976;2023-09-18T02:14:48;100313.13;;;19.63;100.00
66887;BME280;67239;51.680;5.976;2023-09-18T02:17:15;100304.97;;;19.64;100.00
66887;BME280;67239;51.680;5.976;2023-09-18T02:19:43;100302.94;;;19.68;100.00
66887;BME280;67239;51.680;5.976;2023-09-18T02:22:10;100303.66;;;19.70;100.00
66887;BME280;67239;51.680;5.976;2023-09-18T02:24:37;100296.28;;;19.74;100.00
66887;BME280;67239;51.680;5.976;2023-09-18T02:27:05;100289.84;;;19.76;100.00
66887;BME280;67239;51.680;5.976;2023-09-18T02:29:33;100287.91;;;19.78;100.00
66887;BME280;67239;51.680;5.976;2023-09-18T02:32:00;100282.28;;;19.81;100.00
66887;BME280;67239;51.680;5.976;2023-09-18T02:34:27;100276.94;;;19.81;100.00
66887;BME280;67239;51.680;5.976;2023-09-18T02:36:54;100269.78;;;19.82;100.00
66887;BME280;67239;51.680;5.976;2023-09-18T02:39:21;100266.97;;;19.83;100.00
66887;BME280;67239;51.680;5.976;2023-09-18T02:41:50;100251.81;;;19.84;100.00
66887;BME280;67239;51.680;5.976;2023-09-18T02:44:17;100251.81;;;19.84;100.00
66887;BME280;67239;51.680;5.976;2023-09-18T02:46:44;100241.22;;;19.82;100.00
66887;BME280;67239;51.680;5.976;2023-09-18T02:49:12;100230.50;;;19.82;100.00
66887;BME280;67239;51.680;5.976;2023-09-18T02:51:39;100227.84;;;19.82;100.00
66887;BME280;67239;51.680;5.976;2023-09-18T02:54:06;100221.66;;;19.82;100.00
66887;BME280;67239;51.680;5.976;2023-09-18T02:56:34;100205.47;;;19.83;100.00
66887;BME280;67239;51.680;5.976;2023-09-18T02:59:01;100201.81;;;19.84;100.00
66887;BME280;67239;51.680;5.976;2023-09-18T03:01:28;100197.69;;;19.80;100.00
66887;BME280;67239;51.680;5.976;2023-09-18T03:03:55;100187.13;;;19.79;100.00
66887;BME280;67239;51.680;5.976;2023-09-18T03:06:23;100189.94;;;19.77;100.00
66887;BME280;67239;51.680;5.976;2023-09-18T03:08:50;100181.16;;;19.75;100.00
66887;BME280;67239;51.680;5.976;2023-09-18T03:11:18;100172.19;;;19.76;100.00
66887;BME280;67239;51.680;5.976;2023-09-18T03:13:46;100172.19;;;19.76;100.00
66887;BME280;67239;51.680;5.976;2023-09-18T03:16:16;100166.09;;;19.74;100.00
66887;BME280;67239;51.680;5.976;2023-09-18T03:18:45;100154.56;;;19.74;100.00
66887;BME280;67239;51.680;5.976;2023-09-18T03:21:12;100157.25;;;19.74;100.00
66887;BME280;67239;51.680;5.976;2023-09-18T03:23:39;100159.66;;;19.77;100.00
66887;BME280;67239;51.680;5.976;2023-09-18T03:26:06;100149.09;;;19.75;100.00
66887;BME280;67239;51.680;5.976;2023-09-18T03:28:33;100149.22;;;19.74;100.00
66887;BME280;67239;51.680;5.976;2023-09-18T03:31:01;100164.38;;;19.73;100.00
66887;BME280;67239;51.680;5.976;2023-09-18T03:33:28;100178.72;;;19.72;100.00
66887;BME280;67239;51.680;5.976;2023-09-18T03:35:55;100179.59;;;19.73;100.00
66887;BME280;67239;51.680;5.976;2023-09-18T03:38:27;100183.09;;;19.73;100.00
66887;BME280;67239;51.680;5.976;2023-09-18T03:40:54;100192.84;;;19.74;100.00
66887;BME280;67239;51.680;5.976;2023-09-18T03:43:22;100201.59;;;19.76;100.00
66887;BME280;67239;51.680;5.976;2023-09-18T03:45:49;100204.00;;;19.79;100.00
66887;BME280;67239;51.680;5.976;2023-09-18T03:48:17;100183.34;;;19.81;100.00
66887;BME280;67239;51.680;5.976;2023-09-18T03:50:45;100187.72;;;19.82;100.00
66887;BME280;67239;51.680;5.976;2023-09-18T03:53:14;100204.63;;;19.83;100.00
66887;BME280;67239;51.680;5.976;2023-09-18T03:55:42;100216.03;;;19.85;100.00
66887;BME280;67239;51.680;5.976;2023-09-18T03:58:09;100216.69;;;19.89;100.00
66887;BME280;67239;51.680;5.976;2023-09-18T04:00:37;100188.94;;;19.90;100.00
66887;BME280;67239;51.680;5.976;2023-09-18T04:03:04;100199.19;;;19.96;100.00
66887;BME280;67239;51.680;5.976;2023-09-18T04:05:31;100198.06;;;19.98;100.00
66887;BME280;67239;51.680;5.976;2023-09-18T04:07:58;100193.47;;;20.00;100.00
66887;BME280;67239;51.680;5.976;2023-09-18T04:10:26;100189.09;;;19.99;100.00
66887;BME280;67239;51.680;5.976;2023-09-18T04:12:53;100181.06;;;19.99;100.00
66887;BME280;67239;51.680;5.976;2023-09-18T04:15:20;100182.91;;;19.99;100.00
66887;BME280;67239;51.680;5.976;2023-09-18T04:17:49;100184.69;;;19.98;100.00
66887;BME280;67239;51.680;5.976;2023-09-18T04:20:16;100173.03;;;19.99;100.00
66887;BME280;67239;51.680;5.976;2023-09-18T04:22:45;100158.56;;;20.02;100.00
66887;BME280;67239;51.680;5.976;2023-09-18T04:25:17;100158.69;;;20.00;100.00
66887;BME280;67239;51.680;5.976;2023-09-18T04:27:47;100149.94;;;19.98;100.00
66887;BME280;67239;51.680;5.976;2023-09-18T04:30:17;100156.97;;;19.99;100.00
66887;BME280;67239;51.680;5.976;2023-09-18T04:32:47;100145.19;;;20.02;100.00
66887;BME280;67239;51.680;5.976;2023-09-18T04:35:15;100134.47;;;20.02;100.00
66887;BME280;67239;51.680;5.976;2023-09-18T04:37:42;100141.41;;;20.05;100.00
66887;BME280;67239;51.680;5.976;2023-09-18T04:40:10;100150.16;;;20.07;100.00
66887;BME280;67239;51.680;5.976;2023-09-18T04:42:39;100146.41;;;20.09;100.00
66887;BME280;67239;51.680;5.976;2023-09-18T04:45:09;100143.34;;;20.14;100.00
66887;BME280;67239;51.680;5.976;2023-09-18T04:47:37;100137.63;;;20.19;100.00
66887;BME280;67239;51.680;5.976;2023-09-18T04:50:04;100132.84;;;20.22;100.00
66887;BME280;67239;51.680;5.976;2023-09-18T04:52:40;100117.53;;;20.24;100.00
66887;BME280;67239;51.680;5.976;2023-09-18T04:55:16;100120.91;;;20.26;100.00
66887;BME280;67239;51.680;5.976;2023-09-18T04:57:45;100115.44;;;20.28;100.00
66887;BME280;67239;51.680;5.976;2023-09-18T05:00:15;100110.94;;;20.28;100.00
66887;BME280;67239;51.680;5.976;2023-09-18T05:02:45;100108.13;;;20.30;100.00
66887;BME280;67239;51.680;5.976;2023-09-18T05:05:13;100103.78;;;20.29;100.00
66887;BME280;67239;51.680;5.976;2023-09-18T05:07:42;100102.91;;;20.28;100.00
66887;BME280;67239;51.680;5.976;2023-09-18T05:10:09;100107.41;;;20.28;100.00
66887;BME280;67239;51.680;5.976;2023-09-18T05:12:40;100107.41;;;20.28;100.00
66887;BME280;67239;51.680;5.976;2023-09-18T05:15:08;100104.75;;;20.28;100.00
66887;BME280;67239;51.680;5.976;2023-09-18T05:17:44;100097.69;;;20.27;100.00
66887;BME280;67239;51.680;5.976;2023-09-18T05:20:19;100089.53;;;20.28;100.00
66887;BME280;67239;51.680;5.976;2023-09-18T05:22:46;100091.47;;;20.26;100.00
66887;BME280;67239;51.680;5.976;2023-09-18T05:25:14;100095.25;;;20.24;100.00
66887;BME280;67239;51.680;5.976;2023-09-18T05:27:43;100113.16;;;20.23;100.00
66887;BME280;67239;51.680;5.976;2023-09-18T05:30:13;100118.88;;;20.19;100.00
66887;BME280;67239;51.680;5.976;2023-09-18T05:32:45;100122.03;;;20.12;100.00
66887;BME280;67239;51.680;5.976;2023-09-18T05:35:12;100133.84;;;20.10;100.00
66887;BME280;67239;51.680;5.976;2023-09-18T05:37:41;100131.31;;;20.08;100.00
66887;BME280;67239;51.680;5.976;2023-09-18T05:40:10;100145.78;;;20.06;100.00
66887;BME280;67239;51.680;5.976;2023-09-18T05:42:41;100161.13;;;20.04;100.00
66887;BME280;67239;51.680;5.976;2023-09-18T05:45:14;100172.66;;;20.04;100.00
66887;BME280;67239;51.680;5.976;2023-09-18T05:47:44;100164.63;;;20.04;100.00
66887;BME280;67239;51.680;5.976;2023-09-18T05:50:12;100169.00;;;20.05;100.00
66887;BME280;67239;51.680;5.976;2023-09-18T05:52:44;100178.75;;;20.06;100.00
66887;BME280;67239;51.680;5.976;2023-09-18T05:55:14;100186.78;;;20.06;100.00
66887;BME280;67239;51.680;5.976;2023-09-18T05:57:42;100194.78;;;20.06;100.00
66887;BME280;67239;51.680;5.976;2023-09-18T06:00:10;100201.84;;;20.07;100.00
66887;BME280;67239;51.680;5.976;2023-09-18T06:02:40;100206.34;;;20.07;100.00
66887;BME280;67239;51.680;5.976;2023-09-18T06:05:08;100197.34;;;20.08;100.00
66887;BME280;67239;51.680;5.976;2023-09-18T06:07:38;100202.69;;;20.08;100.00
66887;BME280;67239;51.680;5.976;2023-09-18T06:10:06;100198.19;;;20.08;100.00
66887;BME280;67239;51.680;5.976;2023-09-18T06:12:34;100186.63;;;20.08;100.00
66887;BME280;67239;51.680;5.976;2023-09-18T06:15:01;100184.94;;;20.07;100.00
66887;BME280;67239;51.680;5.976;2023-09-18T06:17:28;100193.94;;;20.06;100.00
66887;BME280;67239;51.680;5.976;2023-09-18T06:19:55;100193.94;;;20.06;100.00
66887;BME280;67239;51.680;5.976;2023-09-18T06:22:22;100203.66;;;20.07;100.00
66887;BME280;67239;51.680;5.976;2023-09-18T06:24:49;100206.34;;;20.07;100.00
66887;BME280;67239;51.680;5.976;2023-09-18T06:27:17;100202.81;;;20.06;100.00
66887;BME280;67239;51.680;5.976;2023-09-18T06:29:45;100206.47;;;20.05;100.00
66887;BME280;67239;51.680;5.976;2023-09-18T06:32:12;100218.97;;;20.05;100.00
66887;BME280;67239;51.680;5.976;2023-09-18T06:34:40;100219.97;;;20.04;100.00
66887;BME280;67239;51.680;5.976;2023-09-18T06:37:10;100219.97;;;20.04;100.00
66887;BME280;67239;51.680;5.976;2023-09-18T06:39:39;100220.81;;;20.04;100.00
66887;BME280;67239;51.680;5.976;2023-09-18T06:42:06;100222.66;;;20.04;100.00
66887;BME280;67239;51.680;5.976;2023-09-18T06:44:33;100209.13;;;20.05;100.00
66887;BME280;67239;51.680;5.976;2023-09-18T06:47:01;100214.34;;;20.07;100.00
66887;BME280;67239;51.680;5.976;2023-09-18T06:49:28;100214.97;;;20.10;100.00
66887;BME280;67239;51.680;5.976;2023-09-18T06:51:55;100227.13;;;20.14;100.00
66887;BME280;67239;51.680;5.976;2023-09-18T06:54:22;100232.94;;;20.20;100.00
66887;BME280;67239;51.680;5.976;2023-09-18T06:56:49;100226.38;;;20.24;100.00
66887;BME280;67239;51.680;5.976;2023-09-18T06:59:17;100232.47;;;20.26;100.00
66887;BME280;67239;51.680;5.976;2023-09-18T07:01:44;100241.09;;;20.29;100.00
66887;BME280;67239;51.680;5.976;2023-09-18T07:04:11;100247.03;;;20.33;100.00
66887;BME280;67239;51.680;5.976;2023-09-18T07:06:38;100236.94;;;20.37;100.00
66887;BME280;67239;51.680;5.976;2023-09-18T07:09:05;100245.84;;;20.37;99.80
66887;BME280;67239;51.680;5.976;2023-09-18T07:11:34;100253.72;;;20.39;99.50
66887;BME280;67239;51.680;5.976;2023-09-18T07:14:01;100250.06;;;20.40;99.16
66887;BME280;67239;51.680;5.976;2023-09-18T07:16:32;100241.81;;;20.43;97.70
66887;BME280;67239;51.680;5.976;2023-09-18T07:19:01;100232.44;;;20.48;96.35
66887;BME280;67239;51.680;5.976;2023-09-18T07:21:31;100228.41;;;20.54;96.26
66887;BME280;67239;51.680;5.976;2023-09-18T07:23:58;100246.88;;;20.57;95.70
66887;BME280;67239;51.680;5.976;2023-09-18T07:26:26;100247.59;;;20.59;95.63
66887;BME280;67239;51.680;5.976;2023-09-18T07:28:53;100237.63;;;20.61;95.63
66887;BME280;67239;51.680;5.976;2023-09-18T07:31:21;100235.78;;;20.62;95.44
66887;BME280;67239;51.680;5.976;2023-09-18T07:33:48;100230.19;;;20.65;95.61
66887;BME280;67239;51.680;5.976;2023-09-18T07:36:15;100245.13;;;20.68;94.58
66887;BME280;67239;51.680;5.976;2023-09-18T07:38:42;100252.09;;;20.70;93.54
66887;BME280;67239;51.680;5.976;2023-09-18T07:41:10;100246.72;;;20.70;91.94
66887;BME280;67239;51.680;5.976;2023-09-18T07:43:37;100246.97;;;20.67;91.50
66887;BME280;67239;51.680;5.976;2023-09-18T07:46:06;100265.00;;;20.65;91.27
66887;BME280;67239;51.680;5.976;2023-09-18T07:48:33;100266.19;;;20.61;91.43
66887;BME280;67239;51.680;5.976;2023-09-18T07:51:02;100245.66;;;20.61;91.98
66887;BME280;67239;51.680;5.976;2023-09-18T07:53:29;100246.47;;;20.62;92.19
66887;BME280;67239;51.680;5.976;2023-09-18T07:55:57;100254.28;;;20.65;91.26
66887;BME280;67239;51.680;5.976;2023-09-18T07:58:26;100264.00;;;20.66;91.69
66887;BME280;67239;51.680;5.976;2023-09-18T08:00:57;100264.59;;;20.70;91.08
66887;BME280;67239;51.680;5.976;2023-09-18T08:03:25;100262.44;;;20.75;91.55
66887;BME280;67239;51.680;5.976;2023-09-18T08:05:53;100261.94;;;20.81;90.54
66887;BME280;67239;51.680;5.976;2023-09-18T08:08:21;100263.97;;;20.89;91.17
66887;BME280;67239;51.680;5.976;2023-09-18T08:10:51;100251.75;;;20.96;90.10
66887;BME280;67239;51.680;5.976;2023-09-18T08:13:19;100255.75;;;21.02;90.72
66887;BME280;67239;51.680;5.976;2023-09-18T08:15:51;100252.69;;;21.06;89.85
66887;BME280;67239;51.680;5.976;2023-09-18T08:18:18;100259.63;;;21.09;89.65
66887;BME280;67239;51.680;5.976;2023-09-18T08:20:45;100257.13;;;21.17;89.18
66887;BME280;67239;51.680;5.976;2023-09-18T08:23:12;100255.91;;;21.21;89.62
66887;BME280;67239;51.680;5.976;2023-09-18T08:25:39;100268.09;;;21.25;88.75
66887;BME280;67239;51.680;5.976;2023-09-18T08:28:07;100263.56;;;21.26;87.79
66887;BME280;67239;51.680;5.976;2023-09-18T08:30:37;100271.34;;;21.29;88.75
66887;BME280;67239;51.680;5.976;2023-09-18T08:33:07;100279.72;;;21.36;88.12
66887;BME280;67239;51.680;5.976;2023-09-18T08:35:34;100283.44;;;21.45;87.92
66887;BME280;67239;51.680;5.976;2023-09-18T08:38:01;100281.72;;;21.44;87.99
66887;BME280;67239;51.680;5.976;2023-09-18T08:40:29;100296.13;;;21.42;86.75
66887;BME280;67239;51.680;5.976;2023-09-18T08:42:58;100290.16;;;21.39;86.68
66887;BME280;67239;51.680;5.976;2023-09-18T08:45:35;100281.03;;;21.41;86.37
66887;BME280;67239;51.680;5.976;2023-09-18T08:48:07;100284.41;;;21.44;85.27
66887;BME280;67239;51.680;5.976;2023-09-18T08:50:36;100286.84;;;21.47;84.89
66887;BME280;67239;51.680;5.976;2023-09-18T08:53:05;100294.34;;;21.53;85.21
66887;BME280;67239;51.680;5.976;2023-09-18T08:55:33;100298.94;;;21.62;85.09
66887;BME280;67239;51.680;5.976;2023-09-18T08:58:00;100293.81;;;21.70;84.87
66887;BME280;67239;51.680;5.976;2023-09-18T09:00:28;100299.50;;;21.77;84.14
66887;BME280;67239;51.680;5.976;2023-09-18T09:02:55;100302.47;;;21.84;84.45
66887;BME280;67239;51.680;5.976;2023-09-18T09:05:23;100300.38;;;21.87;82.15
66887;BME280;67239;51.680;5.976;2023-09-18T09:07:51;100310.13;;;21.88;83.23
66887;BME280;67239;51.680;5.976;2023-09-18T09:10:18;100307.03;;;21.93;82.27
66887;BME280;67239;51.680;5.976;2023-09-18T09:12:59;100310.44;;;21.95;81.47
66887;BME280;67239;51.680;5.976;2023-09-18T09:15:29;100307.91;;;21.94;82.17
66887;BME280;67239;51.680;5.976;2023-09-18T09:18:07;100308.63;;;21.96;82.23
66887;BME280;67239;51.680;5.976;2023-09-18T09:20:36;100312.28;;;21.95;81.16
66887;BME280;67239;51.680;5.976;2023-09-18T09:23:05;100293.22;;;21.98;81.20
66887;BME280;67239;51.680;5.976;2023-09-18T09:25:35;100306.53;;;21.99;80.94
66887;BME280;67239;51.680;5.976;2023-09-18T09:28:05;100300.53;;;22.17;81.10
66887;BME280;67239;51.680;5.976;2023-09-18T09:30:35;100296.59;;;22.21;80.83
66887;BME280;67239;51.680;5.976;2023-09-18T09:33:04;100299.03;;;22.34;81.11
66887;BME280;67239;51.680;5.976;2023-09-18T09:35:37;100295.72;;;22.42;79.70
66887;BME280;67239;51.680;5.976;2023-09-18T09:38:10;100294.16;;;22.49;78.61
66887;BME280;67239;51.680;5.976;2023-09-18T09:40:41;100294.72;;;22.53;78.80
66887;BME280;67239;51.680;5.976;2023-09-18T09:43:11;100293.47;;;22.57;78.66
66887;BME280;67239;51.680;5.976;2023-09-18T09:45:42;100292.50;;;22.68;78.54
66887;BME280;67239;51.680;5.976;2023-09-18T09:48:09;100283.75;;;22.75;76.62
66887;BME280;67239;51.680;5.976;2023-09-18T09:50:48;100284.16;;;22.80;76.04
66887;BME280;67239;51.680;5.976;2023-09-18T09:53:16;100275.13;;;22.82;76.70
66887;BME280;67239;51.680;5.976;2023-09-18T09:55:44;100284.19;;;22.90;76.92
66887;BME280;67239;51.680;5.976;2023-09-18T09:58:11;100282.34;;;23.01;76.94
66887;BME280;67239;51.680;5.976;2023-09-18T10:00:49;100302.75;;;23.13;77.15
66887;BME280;67239;51.680;5.976;2023-09-18T10:03:23;100297.38;;;23.23;77.81
66887;BME280;67239;51.680;5.976;2023-09-18T10:05:51;100303.72;;;23.41;76.17
66887;BME280;67239;51.680;5.976;2023-09-18T10:08:22;100309.06;;;23.61;75.17
66887;BME280;67239;51.680;5.976;2023-09-18T10:10:55;100316.84;;;23.74;74.84
66887;BME280;67239;51.680;5.976;2023-09-18T10:16:16;100327.53;;;24.13;74.36
66887;BME280;67239;51.680;5.976;2023-09-18T10:19:13;100325.03;;;24.30;73.86
66887;BME280;67239;51.680;5.976;2023-09-18T10:22:11;100320.56;;;24.48;71.65
66887;BME280;67239;51.680;5.976;2023-09-18T10:24:50;100334.56;;;24.52;71.08
66887;BME280;67239;51.680;5.976;2023-09-18T10:27:21;100326.25;;;24.45;69.67
66887;BME280;67239;51.680;5.976;2023-09-18T10:29:53;100335.59;;;24.51;68.99
66887;BME280;67239;51.680;5.976;2023-09-18T10:32:22;100332.03;;;24.50;68.65
66887;BME280;67239;51.680;5.976;2023-09-18T10:34:50;100333.94;;;24.40;67.61
66887;BME280;67239;51.680;5.976;2023-09-18T10:37:18;100335.97;;;24.28;68.08
66887;BME280;67239;51.680;5.976;2023-09-18T10:39:47;100340.41;;;24.19;68.31
66887;BME280;67239;51.680;5.976;2023-09-18T10:42:16;100348.63;;;24.18;68.04
66887;BME280;67239;51.680;5.976;2023-09-18T10:44:44;100348.19;;;24.23;66.74
66887;BME280;67239;51.680;5.976;2023-09-18T10:47:12;100345.28;;;24.06;67.26
66887;BME280;67239;51.680;5.976;2023-09-18T10:49:41;100346.78;;;24.18;68.16
66887;BME280;67239;51.680;5.976;2023-09-18T10:52:12;100345.78;;;24.19;67.67
66887;BME280;67239;51.680;5.976;2023-09-18T10:54:40;100332.94;;;24.03;68.67
66887;BME280;67239;51.680;5.976;2023-09-18T10:57:08;100322.50;;;24.28;69.17
66887;BME280;67239;51.680;5.976;2023-09-18T10:59:43;100330.53;;;24.38;67.61
66887;BME280;67239;51.680;5.976;2023-09-18T11:02:15;100319.72;;;24.48;66.94
66887;BME280;67239;51.680;5.976;2023-09-18T11:04:44;100328.59;;;24.58;67.35
66887;BME280;67239;51.680;5.976;2023-09-18T11:07:22;100327.72;;;24.40;67.63
66887;BME280;67239;51.680;5.976;2023-09-18T11:09:51;100329.69;;;24.38;66.83
66887;BME280;67239;51.680;5.976;2023-09-18T11:12:18;100324.56;;;24.44;65.40
66887;BME280;67239;51.680;5.976;2023-09-18T11:14:48;100322.41;;;24.48;66.12
66887;BME280;67239;51.680;5.976;2023-09-18T11:22:36;100320.03;;;24.91;64.11
66887;BME280;67239;51.680;5.976;2023-09-18T11:25:36;100322.97;;;24.98;65.01
66887;BME280;67239;51.680;5.976;2023-09-18T11:28:05;100321.81;;;25.18;65.15
66887;BME280;67239;51.680;5.976;2023-09-18T11:30:35;100328.44;;;25.06;65.64
66887;BME280;67239;51.680;5.976;2023-09-18T11:33:05;100341.06;;;25.23;63.92
66887;BME280;67239;51.680;5.976;2023-09-18T11:35:33;100335.84;;;25.22;63.37
66887;BME280;67239;51.680;5.976;2023-09-18T11:38:06;100341.66;;;25.27;63.97
66887;BME280;67239;51.680;5.976;2023-09-18T11:40:37;100332.56;;;25.28;63.33
66887;BME280;67239;51.680;5.976;2023-09-18T11:43:26;100329.75;;;25.20;63.66
66887;BME280;67239;51.680;5.976;2023-09-18T11:45:58;100328.53;;;25.14;62.78
66887;BME280;67239;51.680;5.976;2023-09-18T11:48:29;100334.63;;;25.16;62.23
66887;BME280;67239;51.680;5.976;2023-09-18T11:51:00;100332.69;;;25.26;62.51
66887;BME280;67239;51.680;5.976;2023-09-18T11:53:34;100325.09;;;25.40;61.35
66887;BME280;67239;51.680;5.976;2023-09-18T11:56:10;100314.75;;;25.53;61.27
66887;BME280;67239;51.680;5.976;2023-09-18T11:58:46;100324.00;;;25.77;61.17
66887;BME280;67239;51.680;5.976;2023-09-18T12:01:14;100324.13;;;25.94;59.63
66887;BME280;67239;51.680;5.976;2023-09-18T12:03:43;100310.88;;;26.09;59.61
66887;BME280;67239;51.680;5.976;2023-09-18T12:06:11;100321.28;;;26.30;60.29
66887;BME280;67239;51.680;5.976;2023-09-18T12:08:41;100319.88;;;26.17;58.05
66887;BME280;67239;51.680;5.976;2023-09-18T12:11:08;100312.88;;;26.07;57.67
66887;BME280;67239;51.680;5.976;2023-09-18T12:13:35;100319.00;;;25.82;58.60
66887;BME280;67239;51.680;5.976;2023-09-18T12:16:04;100317.59;;;25.78;58.97
66887;BME280;67239;51.680;5.976;2023-09-18T12:18:36;100309.75;;;25.67;58.64
66887;BME280;67239;51.680;5.976;2023-09-18T12:21:08;100325.31;;;25.47;58.49
66887;BME280;67239;51.680;5.976;2023-09-18T12:23:42;100324.69;;;25.53;58.53
66887;BME280;67239;51.680;5.976;2023-09-18T12:26:12;100324.63;;;25.45;58.91
66887;BME280;67239;51.680;5.976;2023-09-18T12:28:41;100313.94;;;25.61;58.98
66887;BME280;67239;51.680;5.976;2023-09-18T12:31:14;100306.97;;;25.77;59.63
66887;BME280;67239;51.680;5.976;2023-09-18T12:33:44;100300.66;;;25.94;58.80
66887;BME280;67239;51.680;5.976;2023-09-18T12:36:19;100304.25;;;26.03;58.10
66887;BME280;67239;51.680;5.976;2023-09-18T12:38:57;100306.47;;;26.08;57.40
66887;BME280;67239;51.680;5.976;2023-09-18T12:41:27;100302.91;;;26.07;57.10
66887;BME280;67239;51.680;5.976;2023-09-18T12:43:59;100292.28;;;26.05;56.41
66887;BME280;67239;51.680;5.976;2023-09-18T12:46:27;100295.16;;;26.04;56.73
66887;BME280;67239;51.680;5.976;2023-09-18T12:48:56;100278.47;;;26.09;57.02
66887;BME280;67239;51.680;5.976;2023-09-18T12:51:30;100279.75;;;26.23;57.04
66887;BME280;67239;51.680;5.976;2023-09-18T12:53:59;100274.22;;;26.06;55.85
66887;BME280;67239;51.680;5.976;2023-09-18T12:56:27;100285.44;;;26.11;56.47
66887;BME280;67239;51.680;5.976;2023-09-18T12:58:57;100281.69;;;25.78;55.68
66887;BME280;67239;51.680;5.976;2023-09-18T13:01:46;100275.53;;;25.67;57.14
66887;BME280;67239;51.680;5.976;2023-09-18T13:04:14;100279.63;;;25.80;56.94
66887;BME280;67239;51.680;5.976;2023-09-18T13:06:42;100279.06;;;25.94;56.44